Capreol, Canada
Current Conditions -  °F | °C
As of 7:00 PM on Monday 20 Oct 2014 (Local Time) from CYSB Reporting Station
Light Rain Light Rain  
Wind Chill: 33°   Ceiling: 700
Heat Index: 41°   Visibility: 10mi
Dew Point: 41°   Wind: 14mph
Humidity: 100%   Direction: 20°NNE
Pressure: 29.81"   Gusts: NA
Location:  46.7°N, 80.92°W
Report Text: CYSB 202300Z 02012KT 10SM -RA SCT002 OVC007 05/05 A2981 RMK SF3SF5 SLP106
Loading
Personal Weather Stations






























Interactive Weather Map
Tropical Storm Tracking
New forecast layout! Learn more

10-Day Weather Forecast

Advertisements
Track Severe Weather on mobile